Time;durP1;ratioP1;P1;durP2;ratioP2;P2;SDS_P1;SDS_P2;PMS_P1;PMS_P2;Temp;Humidity;BMP_temperature;BMP_pressure;BME280_temperature;BME280_humidity;BME280_pressure;Samples;Min_cycle;Max_cycle;Signal;HPM_P1;HPM_P2
2021/09/27 00:01:12;;;;;;;16.83;15.10;;;14.90;99.90;;;;;;4989904;28;20742;-83
2021/09/27 00:03:38;;;;;;;16.67;15.05;;;14.90;99.90;;;;;;4989544;28;20408;-87
2021/09/27 00:06:05;;;;;;;18.08;16.17;;;14.90;99.90;;;;;;4990042;28;20423;-85
2021/09/27 00:08:31;;;;;;;19.17;16.70;;;14.90;99.90;;;;;;4972153;28;20962;-80
2021/09/27 00:11:06;;;;;;;21.13;17.00;;;14.80;99.90;;;;;;4989572;28;20468;-81
2021/09/27 00:13:38;;;;;;;24.33;16.73;;;14.80;99.90;;;;;;4972336;28;20385;-81
2021/09/27 00:16:06;;;;;;;17.38;15.60;;;14.80;99.90;;;;;;4989653;28;20397;-80
2021/09/27 00:18:32;;;;;;;19.85;17.17;;;14.80;99.90;;;;;;4989535;28;20377;-85
2021/09/27 00:21:01;;;;;;;16.90;15.18;;;14.90;99.90;;;;;;4988138;28;20417;-84
2021/09/27 00:23:29;;;;;;;23.30;16.50;;;14.80;99.90;;;;;;4989969;28;20395;-81
2021/09/27 00:25:54;;;;;;;17.52;15.63;;;14.70;99.90;;;;;;4989198;28;20409;-84
2021/09/27 00:28:20;;;;;;;18.30;16.60;;;14.60;99.90;;;;;;4989113;28;20878;-88
2021/09/27 00:30:50;;;;;;;17.77;15.90;;;14.70;99.90;;;;;;4989499;28;20373;-83
2021/09/27 00:33:20;;;;;;;21.20;16.83;;;14.70;99.90;;;;;;4989433;28;20381;-80
2021/09/27 00:35:46;;;;;;;22.30;15.80;;;14.70;99.90;;;;;;4989696;28;20383;-81
2021/09/27 00:38:12;;;;;;;18.52;16.63;;;14.70;99.90;;;;;;4989237;28;20384;-84
2021/09/27 00:40:42;;;;;;;18.20;16.35;;;14.70;99.90;;;;;;4971679;28;20472;-85
2021/09/27 00:43:08;;;;;;;18.10;16.17;;;14.60;99.90;;;;;;4989651;28;20384;-85
2021/09/27 00:45:40;;;;;;;20.33;16.98;;;14.60;99.90;;;;;;4991127;28;20459;-87
2021/09/27 00:48:06;;;;;;;20.38;16.95;;;14.60;99.90;;;;;;4993103;28;20391;-82
2021/09/27 00:50:36;;;;;;;19.88;17.17;;;14.60;99.90;;;;;;4992849;28;20385;-80
2021/09/27 00:53:07;;;;;;;16.60;15.00;;;14.70;99.90;;;;;;4991631;28;20385;-83
2021/09/27 00:55:33;;;;;;;17.58;15.80;;;14.70;99.90;;;;;;4992756;28;20392;-86
2021/09/27 00:57:58;;;;;;;22.08;17.20;;;14.70;99.90;;;;;;4992621;28;20388;-85
2021/09/27 01:00:27;;;;;;;23.50;18.03;;;14.70;99.90;;;;;;4991466;28;20929;-88
2021/09/27 01:02:53;;;;;;;22.13;17.43;;;14.60;99.90;;;;;;4975318;28;20459;-84
2021/09/27 01:05:20;;;;;;;21.23;17.00;;;14.60;99.90;;;;;;4992442;28;20408;-82
2021/09/27 01:08:06;;;;;;;19.08;16.98;;;14.60;99.90;;;;;;4992235;28;20381;-85
2021/09/27 01:10:43;;;;;;;19.47;17.57;;;14.60;99.90;;;;;;4992578;28;20383;-84
2021/09/27 01:13:31;;;;;;;19.60;17.80;;;14.60;99.90;;;;;;4991323;28;20478;-83
2021/09/27 01:16:07;;;;;;;18.88;17.05;;;14.70;99.90;;;;;;4992629;28;20369;-84
2021/09/27 01:18:41;;;;;;;17.13;15.52;;;14.70;99.90;;;;;;4991151;28;20401;-83
2021/09/27 01:21:27;;;;;;;34.22;18.77;;;14.70;99.90;;;;;;4992416;28;20384;-84
2021/09/27 01:23:58;;;;;;;18.30;16.38;;;14.70;99.90;;;;;;4974559;28;20424;-81
2021/09/27 01:26:55;;;;;;;18.13;16.30;;;14.70;99.90;;;;;;4990917;28;20417;-82
2021/09/27 01:29:45;;;;;;;18.08;16.33;;;14.50;99.90;;;;;;4991001;28;20751;-81
2021/09/27 01:32:18;;;;;;;18.52;16.73;;;14.60;99.90;;;;;;4990795;28;20398;-83
2021/09/27 01:35:21;;;;;;;21.05;16.83;;;14.60;99.90;;;;;;4974425;28;20758;-84
2021/09/27 01:38:06;;;;;;;20.38;16.25;;;14.60;99.90;;;;;;4979328;28;20392;-84
2021/09/27 01:41:05;;;;;;;26.33;16.40;;;14.60;99.90;;;;;;4992022;28;20392;-80
2021/09/27 01:43:48;;;;;;;24.25;16.98;;;14.50;99.90;;;;;;4990693;28;20934;-82
2021/09/27 01:46:31;;;;;;;17.00;15.40;;;14.50;99.90;;;;;;4990681;28;20429;-82
2021/09/27 01:49:06;;;;;;;17.10;15.40;;;14.50;99.90;;;;;;4974398;28;20487;-81
2021/09/27 01:51:58;;;;;;;17.80;16.20;;;14.50;99.90;;;;;;4991282;28;20449;-80
2021/09/27 01:54:33;;;;;;;17.25;15.60;;;14.50;99.90;;;;;;4991844;28;20400;-85
2021/09/27 01:57:15;;;;;;;18.65;16.88;;;14.50;99.90;;;;;;4990050;28;20840;-83
2021/09/27 01:59:53;;;;;;;19.25;17.25;;;14.60;99.90;;;;;;4991821;28;20389;-84
2021/09/27 02:02:30;;;;;;;18.48;16.67;;;14.60;99.90;;;;;;4991631;28;20403;-81
2021/09/27 02:05:03;;;;;;;23.23;15.80;;;14.60;99.90;;;;;;4974597;28;20409;-81
2021/09/27 02:07:34;;;;;;;18.55;16.67;;;14.60;99.90;;;;;;4990400;28;20735;-82
2021/09/27 02:10:21;;;;;;;20.65;17.20;;;14.50;99.90;;;;;;4991398;28;20385;-81
2021/09/27 02:13:18;;;;;;;42.03;19.25;;;14.50;99.90;;;;;;4991519;28;20389;-79
2021/09/27 02:15:56;;;;;;;35.27;19.57;;;14.50;99.90;;;;;;4973354;28;20468;-86
2021/09/27 02:18:40;;;;;;;20.98;16.95;;;14.50;99.90;;;;;;4973334;28;20388;-83
2021/09/27 02:21:14;;;;;;;31.15;18.38;;;14.50;99.90;;;;;;4991053;28;20488;-85
2021/09/27 02:24:01;;;;;;;18.48;16.73;;;14.60;99.90;;;;;;4991238;28;20381;-82
2021/09/27 02:26:27;;;;;;;19.38;17.48;;;14.60;99.90;;;;;;4991459;28;20401;-82
2021/09/27 02:28:54;;;;;;;20.02;17.85;;;14.70;99.90;;;;;;4989725;28;20391;-82
2021/09/27 02:32:02;;;;;;;18.98;17.02;;;14.80;99.90;;;;;;4989427;28;20392;-83
2021/09/27 02:34:49;;;;;;;19.85;17.80;;;14.90;99.90;;;;;;4990779;28;20897;-83
2021/09/27 02:37:36;;;;;;;41.30;19.63;;;14.90;99.90;;;;;;4989537;28;20482;-85
2021/09/27 02:40:23;;;;;;;25.27;18.00;;;15.00;99.90;;;;;;4972993;28;20468;-83
2021/09/27 02:42:56;;;;;;;35.60;19.48;;;15.00;99.90;;;;;;4990792;28;20443;-83
2021/09/27 02:45:24;;;;;;;26.13;18.83;;;15.00;99.90;;;;;;4973171;28;20427;-84
2021/09/27 02:48:10;;;;;;;27.13;19.02;;;15.10;99.90;;;;;;4989897;28;20384;-85
2021/09/27 02:50:36;;;;;;;27.42;18.10;;;15.10;99.90;;;;;;4988886;28;20397;-84
2021/09/27 02:53:01;;;;;;;25.38;17.45;;;15.10;99.90;;;;;;4990642;28;20709;-84
2021/09/27 02:55:57;;;;;;;21.55;16.77;;;15.10;99.90;;;;;;4990723;28;20451;-81
2021/09/27 02:58:40;;;;;;;28.27;17.23;;;15.10;99.90;;;;;;4971733;28;20455;-81
2021/09/27 03:01:38;;;;;;;27.60;17.70;;;15.00;99.90;;;;;;4990101;28;20385;-85
2021/09/27 03:04:16;;;;;;;37.00;19.10;;;15.00;99.90;;;;;;4989988;28;20401;-84
2021/09/27 03:07:24;;;;;;;38.37;18.10;;;15.00;99.90;;;;;;4989861;28;20888;-84
2021/09/27 03:10:10;;;;;;;21.67;16.73;;;14.90;99.90;;;;;;4961292;28;20381;-82
2021/09/27 03:13:23;;;;;;;17.17;15.57;;;14.80;99.90;;;;;;4990122;28;20381;-82
2021/09/27 03:16:19;;;;;;;19.30;17.40;;;14.80;99.90;;;;;;4949148;29;20384;-85
2021/09/27 03:19:26;;;;;;;20.27;18.23;;;14.70;99.90;;;;;;4990096;28;20444;-80
2021/09/27 03:22:12;;;;;;;22.27;20.10;;;14.60;99.90;;;;;;4989262;28;20741;-83
2021/09/27 03:24:57;;;;;;;23.92;21.35;;;14.60;99.90;;;;;;4990002;28;20405;-82
2021/09/27 03:27:34;;;;;;;21.10;19.00;;;14.60;99.90;;;;;;4988485;28;20393;-83
2021/09/27 03:30:18;;;;;;;22.92;20.67;;;14.60;99.90;;;;;;4990041;28;20424;-82
2021/09/27 03:33:06;;;;;;;21.65;19.65;;;14.70;99.90;;;;;;4989770;28;20385;-82
2021/09/27 03:35:34;;;;;;;28.05;21.67;;;14.80;99.90;;;;;;4988466;28;20763;-80
2021/09/27 03:38:20;;;;;;;22.17;19.77;;;14.70;99.90;;;;;;4989748;28;20392;-80
2021/09/27 03:40:59;;;;;;;23.77;21.27;;;14.80;99.90;;;;;;4989609;28;20488;-81
2021/09/27 03:43:43;;;;;;;21.13;18.87;;;15.10;99.90;;;;;;4972324;28;20373;-83
2021/09/27 03:46:48;;;;;;;21.73;19.42;;;15.10;99.90;;;;;;4989559;28;20401;-81
2021/09/27 03:49:39;;;;;;;23.67;21.45;;;15.00;99.90;;;;;;4977420;28;20385;-84
2021/09/27 03:52:10;;;;;;;21.83;19.63;;;14.90;99.90;;;;;;4989221;28;20381;-82
2021/09/27 03:54:50;;;;;;;24.15;20.60;;;14.70;99.90;;;;;;4989204;28;20480;-84
2021/09/27 03:57:27;;;;;;;30.80;21.20;;;14.70;99.90;;;;;;4988455;28;20427;-81
2021/09/27 04:00:00;;;;;;;33.55;22.67;;;14.60;99.90;;;;;;4988441;28;20392;-84
2021/09/27 04:02:40;;;;;;;22.20;20.10;;;14.60;99.90;;;;;;4989467;28;20381;-82
2021/09/27 04:05:18;;;;;;;22.80;20.50;;;14.50;99.90;;;;;;4971341;28;20409;-80
2021/09/27 04:08:18;;;;;;;24.02;21.77;;;14.50;99.90;;;;;;4988348;28;20396;-84
2021/09/27 04:10:50;;;;;;;21.73;19.73;;;14.60;99.90;;;;;;4988266;28;20388;-83
2021/09/27 04:13:34;;;;;;;24.67;22.02;;;14.60;99.90;;;;;;4989444;28;20388;-84
2021/09/27 04:16:05;;;;;;;40.73;24.33;;;14.50;99.90;;;;;;4989313;28;20384;-80
2021/09/27 04:18:49;;;;;;;25.67;22.75;;;14.40;99.90;;;;;;4989584;28;20381;-83
2021/09/27 04:21:29;;;;;;;76.30;26.27;;;14.40;99.90;;;;;;4993585;28;20400;-80
2021/09/27 04:24:13;;;;;;;52.13;24.02;;;14.50;99.90;;;;;;4993335;28;20377;-84
2021/09/27 04:27:04;;;;;;;31.00;25.53;;;14.50;99.90;;;;;;4993423;28;20377;-82
2021/09/27 04:29:51;;;;;;;26.42;23.73;;;14.50;99.90;;;;;;4993521;28;20892;-81
2021/09/27 04:32:30;;;;;;;27.55;23.50;;;14.50;99.90;;;;;;4993215;28;20381;-82
2021/09/27 04:35:34;;;;;;;30.67;27.57;;;14.50;99.90;;;;;;4991932;28;20397;-80
2021/09/27 04:38:03;;;;;;;30.23;27.02;;;14.50;99.90;;;;;;4990929;28;20400;-81
2021/09/27 04:41:01;;;;;;;33.13;27.97;;;14.50;99.90;;;;;;4992912;28;20392;-84
2021/09/27 04:43:36;;;;;;;31.27;27.98;;;14.60;99.90;;;;;;4971938;28;20453;-84
2021/09/27 04:46:25;;;;;;;30.02;27.17;;;14.60;99.90;;;;;;4992838;28;20401;-84
2021/09/27 04:49:14;;;;;;;29.48;26.50;;;14.80;99.90;;;;;;4991843;28;20515;-86
2021/09/27 04:52:11;;;;;;;30.35;27.27;;;14.80;99.90;;;;;;4992502;28;20393;-81
2021/09/27 04:54:55;;;;;;;29.98;26.88;;;14.90;99.90;;;;;;4991600;28;20744;-81
2021/09/27 04:57:30;;;;;;;29.95;27.08;;;14.90;99.90;;;;;;4990788;28;20962;-84
2021/09/27 05:00:39;;;;;;;35.58;27.88;;;15.10;99.90;;;;;;4992491;28;21201;-81
2021/09/27 05:03:34;;;;;;;30.02;26.65;;;15.10;99.90;;;;;;4974411;28;20783;-82
2021/09/27 05:06:02;;;;;;;27.35;24.50;;;15.20;99.90;;;;;;4990119;28;20409;-85
2021/09/27 05:08:43;;;;;;;48.58;27.13;;;15.30;99.90;;;;;;4992585;28;20380;-79
2021/09/27 05:11:08;;;;;;;26.33;23.80;;;15.40;99.90;;;;;;4991012;28;20377;-86
2021/09/27 05:14:02;;;;;;;28.38;25.55;;;15.40;99.90;;;;;;4992340;28;20392;-82
2021/09/27 05:16:58;;;;;;;26.50;23.83;;;15.40;99.90;;;;;;4990032;28;20397;-85
2021/09/27 05:19:35;;;;;;;26.92;24.23;;;15.50;99.90;;;;;;4992496;28;20377;-87
2021/09/27 05:22:25;;;;;;;29.70;25.00;;;15.50;99.90;;;;;;4986330;28;20395;-85
2021/09/27 05:25:09;;;;;;;25.77;23.02;;;15.50;99.90;;;;;;4972370;28;20830;-81
2021/09/27 05:28:00;;;;;;;38.27;25.03;;;15.60;99.90;;;;;;4975921;28;20871;-83
2021/09/27 05:30:53;;;;;;;25.35;22.85;;;15.60;99.90;;;;;;4989702;28;20883;-78
2021/09/27 05:33:33;;;;;;;26.55;23.65;;;15.70;99.90;;;;;;4992198;28;20399;-83
2021/09/27 05:36:20;;;;;;;24.50;22.13;;;15.70;99.90;;;;;;4974205;28;20915;-84
2021/09/27 05:39:24;;;;;;;53.90;25.63;;;15.80;99.90;;;;;;4990163;28;20393;-83
2021/09/27 05:42:13;;;;;;;23.58;21.35;;;15.80;99.90;;;;;;4990986;28;20867;-84
2021/09/27 05:45:15;;;;;;;23.83;21.42;;;15.90;99.90;;;;;;4991465;28;20895;-83
2021/09/27 05:47:51;;;;;;;22.27;20.17;;;16.00;99.90;;;;;;4973759;28;20883;-85
2021/09/27 05:50:26;;;;;;;25.53;20.63;;;16.00;99.90;;;;;;4990808;28;20385;-81
2021/09/27 05:53:22;;;;;;;22.25;19.92;;;16.10;99.90;;;;;;4990068;28;20479;-83
2021/09/27 05:56:19;;;;;;;29.40;21.65;;;16.20;99.90;;;;;;4968385;28;20389;-81
2021/09/27 05:59:11;;;;;;;21.05;19.10;;;16.30;99.90;;;;;;4989470;28;20836;-79
2021/09/27 06:01:54;;;;;;;20.60;18.70;;;16.40;99.90;;;;;;4966773;28;20388;-86
2021/09/27 06:04:25;;;;;;;21.27;19.20;;;16.40;99.90;;;;;;4988405;28;20495;-80
2021/09/27 06:07:15;;;;;;;20.95;18.85;;;16.50;99.90;;;;;;4989830;28;20384;-81
2021/09/27 06:09:59;;;;;;;26.52;19.35;;;16.50;99.90;;;;;;4991391;28;20384;-80
2021/09/27 06:12:32;;;;;;;20.97;18.97;;;16.60;99.90;;;;;;4973798;28;20383;-83
2021/09/27 06:15:02;;;;;;;18.88;17.02;;;16.70;99.90;;;;;;4991322;28;20395;-82
2021/09/27 06:18:01;;;;;;;24.33;18.02;;;16.80;99.90;;;;;;4991416;28;20860;-82
2021/09/27 06:20:47;;;;;;;27.40;16.85;;;17.00;99.90;;;;;;4992403;28;20471;-81
2021/09/27 06:23:47;;;;;;;18.13;16.52;;;17.10;99.90;;;;;;4993480;28;20444;-84
2021/09/27 06:26:15;;;;;;;22.77;17.70;;;17.20;99.90;;;;;;4974991;28;20416;-79
2021/09/27 06:28:58;;;;;;;21.60;16.15;;;17.20;99.90;;;;;;4991982;28;20387;-82
2021/09/27 06:31:27;;;;;;;21.40;16.58;;;17.30;99.90;;;;;;4991310;28;20376;-83
2021/09/27 06:33:56;;;;;;;17.58;15.82;;;17.30;99.90;;;;;;4989607;28;20447;-81
2021/09/27 06:36:25;;;;;;;19.02;16.27;;;17.40;99.90;;;;;;4988914;28;20385;-80
2021/09/27 06:38:54;;;;;;;18.50;16.30;;;17.40;99.90;;;;;;4990253;28;20877;-82
2021/09/27 06:41:22;;;;;;;18.10;15.90;;;17.50;99.90;;;;;;4987762;28;20883;-83
2021/09/27 06:43:48;;;;;;;17.20;15.40;;;17.40;99.90;;;;;;4993522;28;20441;-84
2021/09/27 06:46:15;;;;;;;24.17;15.60;;;17.40;99.90;;;;;;4994957;28;20400;-81
2021/09/27 06:48:41;;;;;;;18.55;16.55;;;17.40;99.90;;;;;;4990006;28;20381;-82
2021/09/27 06:51:07;;;;;;;17.40;15.77;;;17.40;99.90;;;;;;4988231;28;20455;-82
2021/09/27 06:54:01;;;;;;;35.50;15.90;;;17.40;99.90;;;;;;4986055;28;20388;-84
2021/09/27 06:56:27;;;;;;;18.33;14.13;;;17.50;99.90;;;;;;4967358;28;20424;-80
2021/09/27 06:58:54;;;;;;;18.57;14.87;;;17.70;99.90;;;;;;4989477;28;20839;-83
2021/09/27 07:01:30;;;;;;;15.13;13.68;;;17.80;99.90;;;;;;4988789;28;20787;-83
2021/09/27 07:03:56;;;;;;;14.75;13.30;;;18.00;99.90;;;;;;4988130;28;20408;-84
2021/09/27 07:06:22;;;;;;;14.80;13.30;;;18.20;99.90;;;;;;4989507;28;20827;-81
2021/09/27 07:08:47;;;;;;;28.10;13.80;;;18.30;99.90;;;;;;4989573;28;21083;-80
2021/09/27 07:11:14;;;;;;;13.00;11.73;;;18.60;99.90;;;;;;4989631;28;20377;-84
2021/09/27 07:13:40;;;;;;;17.60;13.43;;;18.80;99.90;;;;;;4989500;28;20467;-84
2021/09/27 07:16:06;;;;;;;13.68;12.38;;;18.90;99.90;;;;;;4990342;28;20962;-83
2021/09/27 07:18:32;;;;;;;13.33;12.03;;;19.00;99.90;;;;;;4972313;28;20381;-83
2021/09/27 07:20:59;;;;;;;19.20;12.13;;;19.30;99.90;;;;;;4990011;28;20385;-81
2021/09/27 07:23:28;;;;;;;17.70;12.18;;;19.40;99.90;;;;;;4989170;28;20412;-87
2021/09/27 07:25:54;;;;;;;18.65;13.55;;;19.50;99.90;;;;;;4991735;28;20835;-85
2021/09/27 07:28:22;;;;;;;17.75;12.15;;;19.60;99.90;;;;;;4982334;28;20434;-85
2021/09/27 07:30:50;;;;;;;16.80;11.57;;;19.70;99.90;;;;;;4980888;28;20461;-85
2021/09/27 07:33:17;;;;;;;13.47;12.07;;;19.80;99.90;;;;;;4990721;28;20387;-86
2021/09/27 07:35:43;;;;;;;21.02;12.75;;;19.90;99.90;;;;;;4992713;28;20392;-85
2021/09/27 07:38:09;;;;;;;20.17;13.07;;;20.00;99.90;;;;;;4993779;28;20393;-80
2021/09/27 07:40:37;;;;;;;14.13;12.43;;;20.00;99.90;;;;;;4974101;28;20385;-83
2021/09/27 07:43:02;;;;;;;17.10;12.73;;;20.00;99.90;;;;;;4990889;28;20381;-87
2021/09/27 07:45:33;;;;;;;13.38;12.07;;;20.10;99.90;;;;;;4973503;28;20767;-81
2021/09/27 07:48:00;;;;;;;22.90;13.53;;;20.20;99.90;;;;;;4991705;28;20393;-84
2021/09/27 07:50:26;;;;;;;18.45;13.38;;;20.10;99.90;;;;;;4991472;28;20385;-82
2021/09/27 07:52:52;;;;;;;14.67;12.30;;;20.10;99.90;;;;;;4994304;28;20389;-82
2021/09/27 07:55:17;;;;;;;14.70;13.15;;;20.10;99.90;;;;;;4991571;28;20392;-84
2021/09/27 07:57:43;;;;;;;23.88;13.60;;;20.10;99.90;;;;;;4991120;28;20372;-85
2021/09/27 08:00:10;;;;;;;27.90;13.13;;;20.10;99.90;;;;;;4974579;28;20377;-81
2021/09/27 08:02:36;;;;;;;16.17;12.55;;;20.10;99.90;;;;;;4989791;28;20464;-80
2021/09/27 08:05:02;;;;;;;14.35;12.90;;;20.20;99.90;;;;;;4992722;28;20618;-81
2021/09/27 08:07:28;;;;;;;14.50;12.48;;;20.30;99.90;;;;;;4992341;28;20373;-81
2021/09/27 08:09:54;;;;;;;21.48;12.95;;;20.40;99.90;;;;;;4993976;28;20387;-85
2021/09/27 08:12:20;;;;;;;16.50;13.20;;;20.40;99.90;;;;;;4993394;28;20381;-81
2021/09/27 08:14:46;;;;;;;12.80;11.32;;;20.40;99.90;;;;;;4992075;28;20913;-85
2021/09/27 08:17:12;;;;;;;14.27;11.60;;;20.40;99.90;;;;;;4990868;28;20396;-86
2021/09/27 08:19:42;;;;;;;15.57;12.10;;;20.30;99.90;;;;;;4990328;28;20389;-82
2021/09/27 08:22:07;;;;;;;13.43;11.98;;;20.40;99.90;;;;;;4994395;28;21060;-83
2021/09/27 08:24:33;;;;;;;17.40;12.93;;;20.30;99.90;;;;;;4995137;28;20397;-88
2021/09/27 08:27:00;;;;;;;13.17;11.80;;;20.30;99.90;;;;;;4990483;28;20451;-84
2021/09/27 08:29:26;;;;;;;15.70;11.82;;;20.30;99.90;;;;;;4989272;28;20432;-81
2021/09/27 08:31:52;;;;;;;15.82;11.52;;;20.40;99.90;;;;;;4987743;28;20800;-79
2021/09/27 08:34:17;;;;;;;12.82;11.30;;;20.50;99.90;;;;;;4996257;28;20384;-84
2021/09/27 08:36:44;;;;;;;28.83;12.53;;;20.70;99.90;;;;;;4989223;28;20427;-80
2021/09/27 08:39:10;;;;;;;23.80;12.07;;;20.80;99.90;;;;;;4988417;28;20431;-81
2021/09/27 08:41:48;;;;;;;29.08;12.27;;;20.80;99.90;;;;;;4989567;28;20450;-88
2021/09/27 08:44:45;;;;;;;13.40;10.93;;;21.00;99.90;;;;;;4988421;28;20385;-87
2021/09/27 08:47:36;;;;;;;23.02;12.20;;;21.10;99.90;;;;;;4988541;28;20891;-84
2021/09/27 08:50:05;;;;;;;12.82;11.30;;;21.20;99.90;;;;;;4989946;28;20388;-82
2021/09/27 08:52:35;;;;;;;18.63;11.05;;;21.20;99.90;;;;;;4989735;28;20405;-82
2021/09/27 08:55:09;;;;;;;14.00;10.55;;;21.30;99.90;;;;;;4988903;28;20373;-79
2021/09/27 08:57:56;;;;;;;22.38;11.80;;;21.40;99.90;;;;;;4970365;28;20417;-82
2021/09/27 09:00:31;;;;;;;13.32;10.70;;;21.40;99.90;;;;;;4988199;28;20393;-84
2021/09/27 09:03:07;;;;;;;11.88;9.70;;;21.50;99.90;;;;;;4986211;28;20428;-84
2021/09/27 09:05:48;;;;;;;29.63;11.45;;;21.60;99.90;;;;;;4989745;28;20413;-88
2021/09/27 09:08:20;;;;;;;13.98;10.77;;;21.60;99.90;;;;;;4993010;28;20388;-83
2021/09/27 09:11:12;;;;;;;14.48;9.88;;;21.60;99.90;;;;;;4994366;28;20392;-82
2021/09/27 09:13:43;;;;;;;13.70;9.90;;;21.80;99.90;;;;;;4996067;28;20417;-83
2021/09/27 09:16:14;;;;;;;15.15;10.13;;;21.90;99.90;;;;;;4995647;28;20882;-85
2021/09/27 09:18:50;;;;;;;12.90;10.02;;;21.90;99.90;;;;;;4989975;28;20392;-82
2021/09/27 09:21:32;;;;;;;21.45;10.05;;;21.90;99.90;;;;;;4992534;28;20480;-82
2021/09/27 09:24:02;;;;;;;12.68;10.02;;;21.90;99.90;;;;;;4975670;28;20403;-87
2021/09/27 09:26:32;;;;;;;10.38;9.40;;;21.80;99.90;;;;;;4975382;28;20472;-86
2021/09/27 09:28:58;;;;;;;26.80;10.75;;;21.90;99.90;;;;;;4974905;28;20926;-82
2021/09/27 09:31:33;;;;;;;11.48;9.50;;;21.90;99.90;;;;;;4992403;28;20572;-86
2021/09/27 09:34:02;;;;;;;18.00;10.73;;;21.80;99.90;;;;;;4991532;28;20433;-83
2021/09/27 09:36:31;;;;;;;25.50;10.50;;;21.80;99.90;;;;;;4999926;28;20420;-83
2021/09/27 09:38:58;;;;;;;12.05;9.82;;;21.60;99.90;;;;;;4992148;28;20380;-79
2021/09/27 09:41:52;;;;;;;18.02;10.73;;;21.50;99.90;;;;;;4991923;28;20720;-85
2021/09/27 09:44:45;;;;;;;11.90;10.80;;;21.50;99.90;;;;;;4991201;28;20939;-80
2021/09/27 09:47:12;;;;;;;15.02;11.50;;;21.30;99.90;;;;;;4991803;28;20440;-82
2021/09/27 09:50:05;;;;;;;13.65;10.85;;;21.20;99.90;;;;;;4991648;28;20426;-87
2021/09/27 09:52:44;;;;;;;17.05;12.18;;;21.10;99.90;;;;;;4994285;28;20956;-79
2021/09/27 09:55:28;;;;;;;17.10;12.25;;;21.00;99.90;;;;;;4991339;28;20389;-84
2021/09/27 09:58:02;;;;;;;13.10;11.73;;;20.90;99.90;;;;;;4994963;28;20486;-81
2021/09/27 10:00:41;;;;;;;19.92;12.75;;;20.80;99.90;;;;;;5010751;28;20375;-87
2021/09/27 10:03:08;;;;;;;29.75;13.95;;;20.80;99.90;;;;;;5010354;28;20464;-83
2021/09/27 10:05:49;;;;;;;12.82;11.55;;;20.80;99.90;;;;;;5010737;28;20834;-84
2021/09/27 10:08:18;;;;;;;13.20;12.00;;;20.70;99.90;;;;;;5010270;28;20380;-81
2021/09/27 10:10:54;;;;;;;13.55;12.02;;;20.80;99.90;;;;;;5011072;28;20383;-82
2021/09/27 10:13:37;;;;;;;18.05;11.95;;;20.90;99.90;;;;;;5010593;28;20391;-81
2021/09/27 10:16:26;;;;;;;14.10;10.93;;;21.10;99.90;;;;;;5010692;28;20371;-82
2021/09/27 10:18:51;;;;;;;13.02;10.35;;;21.50;99.90;;;;;;4975135;28;20403;-86
2021/09/27 10:21:31;;;;;;;10.17;9.23;;;21.60;99.90;;;;;;4991357;28;20392;-85
2021/09/27 10:24:19;;;;;;;11.00;9.90;;;21.70;99.90;;;;;;4990531;28;20404;-79
2021/09/27 10:26:52;;;;;;;25.40;10.23;;;21.90;99.90;;;;;;4991318;28;20405;-86
2021/09/27 10:29:29;;;;;;;10.00;9.00;;;22.20;99.90;;;;;;4991433;28;20408;-86
2021/09/27 10:32:02;;;;;;;10.95;8.90;;;22.50;99.90;;;;;;4991123;28;20455;-83
2021/09/27 10:34:33;;;;;;;16.05;9.30;;;22.70;99.90;;;;;;4990503;28;20377;-81
2021/09/27 10:37:12;;;;;;;13.60;9.25;;;23.00;99.90;;;;;;4991336;28;20840;-84
2021/09/27 10:39:38;;;;;;;19.67;9.82;;;23.10;99.90;;;;;;4990596;28;20385;-82
2021/09/27 10:42:09;;;;;;;9.20;8.27;;;23.20;99.90;;;;;;4990631;28;20867;-83
2021/09/27 10:44:34;;;;;;;23.35;9.20;;;23.00;99.90;;;;;;4990898;28;20443;-86
2021/09/27 10:47:31;;;;;;;13.70;8.50;;;23.00;99.90;;;;;;4990024;28;20408;-86
2021/09/27 10:50:23;;;;;;;14.27;8.25;;;22.90;99.90;;;;;;4964905;28;20476;-83
2021/09/27 10:52:51;;;;;;;26.90;9.27;;;23.10;99.90;;;;;;4990652;28;21390;-84
2021/09/27 10:55:54;;;;;;;8.93;8.10;;;23.20;99.90;;;;;;4990087;28;20387;-86
2021/09/27 10:58:35;;;;;;;8.95;7.57;;;23.30;99.90;;;;;;4998042;28;20393;-83
2021/09/27 11:01:03;;;;;;;9.82;7.85;;;23.40;99.90;;;;;;4990859;28;20859;-84
2021/09/27 11:03:40;;;;;;;9.73;8.13;;;23.50;99.90;;;;;;4990742;28;20407;-87
2021/09/27 11:06:28;;;;;;;15.23;8.77;;;23.60;99.90;;;;;;4990235;28;20427;-84
2021/09/27 11:09:18;;;;;;;24.83;8.63;;;23.40;99.90;;;;;;4990037;28;20377;-84
2021/09/27 11:11:46;;;;;;;8.40;7.60;;;23.40;99.90;;;;;;4973680;28;20400;-88
2021/09/27 11:14:34;;;;;;;10.90;8.13;;;23.30;99.90;;;;;;4971833;28;20392;-84
2021/09/27 11:17:06;;;;;;;8.43;7.63;;;23.20;99.90;;;;;;4987096;28;20871;-82
2021/09/27 11:19:32;;;;;;;8.68;7.88;;;23.30;99.90;;;;;;4988554;28;20380;-85
2021/09/27 11:22:17;;;;;;;11.20;8.30;;;23.40;99.90;;;;;;4988280;28;20703;-84
2021/09/27 11:24:43;;;;;;;8.82;8.00;;;23.40;99.90;;;;;;4987792;28;20448;-83
2021/09/27 11:27:16;;;;;;;8.82;7.60;;;23.40;99.90;;;;;;4986913;28;20535;-84
2021/09/27 11:29:54;;;;;;;17.77;7.68;;;23.60;99.90;;;;;;4989039;28;20435;-86
2021/09/27 11:32:25;;;;;;;12.32;7.78;;;23.60;99.90;;;;;;4988388;28;20910;-90
2021/09/27 11:35:06;;;;;;;12.40;8.18;;;23.60;99.90;;;;;;4989870;28;20440;-88
2021/09/27 11:37:55;;;;;;;12.05;7.72;;;23.80;99.90;;;;;;4989477;28;20387;-81
2021/09/27 11:40:23;;;;;;;39.95;9.10;;;23.90;99.90;;;;;;4992016;28;20468;-84
2021/09/27 11:42:56;;;;;;;8.02;7.22;;;24.00;99.90;;;;;;4989244;28;20397;-83
2021/09/27 11:45:37;;;;;;;8.68;6.88;;;24.00;99.90;;;;;;4990043;28;20412;-85
2021/09/27 11:48:12;;;;;;;8.40;7.20;;;23.80;99.90;;;;;;4990066;28;20393;-83
2021/09/27 11:50:53;;;;;;;8.27;7.47;;;23.70;99.90;;;;;;4988123;28;20459;-81
2021/09/27 11:54:17;;;;;;;10.65;8.25;;;23.50;99.90;;;;;;4989717;28;20380;-80
2021/09/27 11:56:57;;;;;;;11.73;8.00;;;23.30;99.90;;;;;;4911278;29;20399;-86
2021/09/27 11:59:41;;;;;;;9.63;8.13;;;23.10;99.90;;;;;;4894591;29;20408;-83
2021/09/27 12:02:17;;;;;;;9.18;8.27;;;22.90;99.90;;;;;;4965823;28;20394;-84
2021/09/27 12:05:15;;;;;;;12.38;8.30;;;22.70;99.90;;;;;;4989812;28;20424;-82
2021/09/27 12:08:03;;;;;;;10.37;8.40;;;22.70;99.90;;;;;;4988486;28;20384;-83
2021/09/27 12:10:34;;;;;;;8.65;7.65;;;22.60;99.90;;;;;;4988888;28;20428;-83
2021/09/27 12:13:10;;;;;;;10.18;8.63;;;22.40;99.90;;;;;;4990237;28;20389;-87
2021/09/27 12:15:42;;;;;;;12.25;9.30;;;22.10;99.90;;;;;;4990288;28;20416;-86
2021/09/27 12:18:39;;;;;;;16.35;9.48;;;22.10;99.90;;;;;;4988445;28;20389;-82
2021/09/27 12:21:19;;;;;;;14.38;8.98;;;22.10;99.90;;;;;;4990663;28;20383;-83
2021/09/27 12:23:50;;;;;;;12.40;8.65;;;22.20;99.90;;;;;;4989924;28;20459;-81
2021/09/27 12:26:20;;;;;;;13.57;8.52;;;22.30;99.90;;;;;;4988978;28;20409;-86
2021/09/27 12:28:46;;;;;;;11.45;8.70;;;22.50;99.90;;;;;;4991372;28;20431;-86
2021/09/27 12:31:11;;;;;;;14.48;8.75;;;22.60;99.90;;;;;;4989826;28;20380;-83
2021/09/27 12:33:39;;;;;;;22.57;9.30;;;22.70;99.90;;;;;;4989824;28;20487;-87
2021/09/27 12:36:11;;;;;;;26.95;9.45;;;22.70;99.90;;;;;;4989652;28;20395;-80
2021/09/27 12:38:46;;;;;;;11.43;8.30;;;22.70;99.90;;;;;;4989859;28;20385;-89
2021/09/27 12:41:12;;;;;;;9.50;8.10;;;22.80;99.90;;;;;;4992660;28;20388;-81
2021/09/27 12:43:38;;;;;;;13.93;8.90;;;22.70;99.90;;;;;;4988159;28;20768;-84
2021/09/27 12:46:22;;;;;;;17.88;8.82;;;22.60;99.90;;;;;;4989567;28;20464;-84
2021/09/27 12:48:57;;;;;;;9.68;8.73;;;22.80;99.90;;;;;;4989590;28;20740;-80
2021/09/27 12:51:33;;;;;;;13.77;8.57;;;22.80;99.90;;;;;;4991592;28;20381;-86
2021/09/27 12:54:03;;;;;;;15.57;9.25;;;22.70;99.90;;;;;;4989102;28;20485;-83
2021/09/27 12:56:30;;;;;;;9.47;8.67;;;22.80;99.90;;;;;;4973665;28;20411;-80
2021/09/27 12:59:01;;;;;;;24.07;10.53;;;22.80;99.90;;;;;;4989909;28;20432;-84
2021/09/27 13:01:29;;;;;;;15.17;10.63;;;22.90;99.90;;;;;;4999572;28;20396;-81
2021/09/27 13:04:01;;;;;;;12.60;9.70;;;22.80;99.90;;;;;;4989403;28;20396;-84
2021/09/27 13:06:34;;;;;;;23.63;11.10;;;22.80;99.90;;;;;;4991300;28;20401;-81
2021/09/27 13:09:19;;;;;;;22.67;11.10;;;22.70;99.90;;;;;;4989568;28;20820;-80
2021/09/27 13:11:50;;;;;;;16.98;10.93;;;22.60;99.90;;;;;;4994168;28;20396;-81
2021/09/27 13:14:25;;;;;;;25.50;11.73;;;22.70;99.90;;;;;;4993820;28;20444;-82
2021/09/27 13:16:55;;;;;;;12.02;10.00;;;22.60;99.90;;;;;;4992790;28;20400;-88
2021/09/27 13:19:42;;;;;;;17.05;11.63;;;22.70;99.90;;;;;;4992138;28;20389;-78
2021/09/27 13:22:38;;;;;;;17.33;10.68;;;22.70;99.90;;;;;;4982334;28;20963;-83